createdAt,value
2022-10-15T00:00:48.818Z,43.08
2022-10-15T00:03:16.261Z,44.75
2022-10-15T00:05:43.965Z,40.83
2022-10-15T00:08:11.973Z,42.20
2022-10-15T00:10:39.644Z,42.92
2022-10-15T00:13:06.987Z,42.88
2022-10-15T00:15:34.291Z,45.60
2022-10-15T00:18:01.496Z,43.47
2022-10-15T00:20:28.735Z,44.08
2022-10-15T00:22:55.959Z,43.95
2022-10-15T00:25:23.204Z,44.20
2022-10-15T00:27:50.430Z,46.15
2022-10-15T00:30:17.726Z,47.85
2022-10-15T00:32:44.950Z,44.95
2022-10-15T00:35:12.198Z,45.45
2022-10-15T00:37:39.404Z,45.47
2022-10-15T00:40:06.954Z,47.13
2022-10-15T00:42:34.177Z,43.85
2022-10-15T00:45:01.503Z,43.47
2022-10-15T00:47:28.795Z,45.35
2022-10-15T00:50:01.188Z,45.03
2022-10-15T00:52:33.511Z,47.45
2022-10-15T00:55:03.916Z,48.15
2022-10-15T00:57:31.848Z,48.67
2022-10-15T01:00:02.796Z,47.13
2022-10-15T01:02:30.007Z,49.38
2022-10-15T01:04:57.297Z,47.70
2022-10-15T01:07:24.677Z,49.53
2022-10-15T01:09:52.214Z,48.60
2022-10-15T01:12:37.829Z,50.75
2022-10-15T01:15:08.234Z,49.83
2022-10-15T01:17:38.239Z,51.92
2022-10-15T01:20:20.527Z,51.30
2022-10-15T01:23:15.035Z,52.78
2022-10-15T01:25:51.460Z,52.08
2022-10-15T01:28:21.961Z,51.58
2022-10-15T01:30:51.223Z,52.47
2022-10-15T01:33:25.927Z,54.17
2022-10-15T01:36:02.702Z,67.63
2022-10-15T01:38:38.727Z,62.28
2022-10-15T01:41:10.793Z,57.25
2022-10-15T01:43:45.626Z,58.25
2022-10-15T01:46:18.160Z,59.55
2022-10-15T01:48:45.433Z,57.33
2022-10-15T01:51:14.007Z,57.00
2022-10-15T01:53:41.827Z,56.28
2022-10-15T01:56:10.514Z,56.47
2022-10-15T01:58:40.055Z,56.35
2022-10-15T02:01:07.448Z,59.00
2022-10-15T02:03:44.169Z,56.42
2022-10-15T02:06:14.275Z,57.72
2022-10-15T02:08:56.909Z,58.15
2022-10-15T02:11:24.288Z,59.40
2022-10-15T02:13:57.124Z,59.08
2022-10-15T02:16:44.623Z,60.47
2022-10-15T02:19:30.415Z,62.40
2022-10-15T02:22:04.303Z,63.10
2022-10-15T02:24:35.790Z,64.07
2022-10-15T02:27:04.127Z,65.95
2022-10-15T02:29:33.343Z,64.88
2022-10-15T02:32:01.239Z,64.85
2022-10-15T02:34:30.160Z,66.18
2022-10-15T02:37:02.223Z,65.22
2022-10-15T02:39:29.620Z,65.38
2022-10-15T02:41:57.827Z,67.97
2022-10-15T02:44:25.044Z,71.07
2022-10-15T02:46:52.314Z,67.18
2022-10-15T02:49:19.562Z,67.70
2022-10-15T02:51:46.808Z,71.63
2022-10-15T02:54:14.040Z,72.15
2022-10-15T02:56:41.287Z,71.70
2022-10-15T02:59:08.521Z,71.18
2022-10-15T03:01:35.863Z,70.15
2022-10-15T03:04:03.127Z,71.82
2022-10-15T03:06:30.383Z,72.25
2022-10-15T03:08:57.659Z,73.43
2022-10-15T03:11:24.887Z,73.68
2022-10-15T03:13:52.114Z,79.57
2022-10-15T03:16:19.365Z,75.43
2022-10-15T03:18:46.616Z,76.78
2022-10-15T03:21:13.791Z,77.13
2022-10-15T03:23:40.998Z,75.07
2022-10-15T03:26:08.683Z,73.38
2022-10-15T03:28:35.935Z,78.38
2022-10-15T03:31:03.199Z,76.43
2022-10-15T03:33:30.453Z,76.07
2022-10-15T03:35:57.716Z,73.40
2022-10-15T03:38:24.951Z,73.60
2022-10-15T03:40:52.183Z,76.28
2022-10-15T03:43:19.373Z,77.82
2022-10-15T03:45:46.574Z,76.95
2022-10-15T03:48:13.806Z,73.97
2022-10-15T03:50:41.089Z,74.70
2022-10-15T03:53:08.357Z,75.55
2022-10-15T03:55:35.682Z,72.45
2022-10-15T03:58:02.918Z,78.10
2022-10-15T04:00:30.203Z,73.85
2022-10-15T04:02:57.455Z,74.50
2022-10-15T04:05:24.691Z,76.35
2022-10-15T04:07:51.981Z,72.75
2022-10-15T04:10:19.169Z,72.57
2022-10-15T04:12:46.836Z,74.28
2022-10-15T04:15:14.063Z,73.65
2022-10-15T04:17:41.315Z,72.88
2022-10-15T04:20:09.042Z,71.75
2022-10-15T04:22:37.803Z,74.07
2022-10-15T04:25:05.391Z,72.82
2022-10-15T04:27:32.632Z,75.15
2022-10-15T04:29:59.823Z,73.65
2022-10-15T04:32:27.025Z,76.65
2022-10-15T04:34:54.251Z,76.53
2022-10-15T04:37:21.703Z,80.15
2022-10-15T04:39:49.061Z,76.82
2022-10-15T04:42:16.354Z,78.43
2022-10-15T04:44:43.583Z,77.70
2022-10-15T04:47:10.912Z,77.03
2022-10-15T04:49:38.099Z,80.10
2022-10-15T04:52:05.352Z,78.90
2022-10-15T04:54:32.609Z,75.80
2022-10-15T04:56:59.808Z,77.75
2022-10-15T04:59:27.025Z,78.50
2022-10-15T05:01:54.291Z,75.85
2022-10-15T05:04:21.722Z,75.90
2022-10-15T05:06:48.991Z,77.30
2022-10-15T05:09:16.312Z,79.03
2022-10-15T05:11:43.602Z,76.75
2022-10-15T05:14:10.828Z,76.78
2022-10-15T05:16:38.071Z,78.07
2022-10-15T05:19:06.529Z,77.22
2022-10-15T05:21:34.511Z,79.07
2022-10-15T05:24:02.190Z,76.32
2022-10-15T05:26:30.027Z,76.45
2022-10-15T05:29:01.069Z,77.47
2022-10-15T05:31:30.271Z,77.55
2022-10-15T05:33:57.787Z,75.80
2022-10-15T05:36:26.221Z,74.60
2022-10-15T05:38:54.504Z,73.28
2022-10-15T05:41:21.951Z,74.38
2022-10-15T05:43:50.664Z,76.18
2022-10-15T05:46:18.947Z,78.68
2022-10-15T05:49:12.492Z,77.05
2022-10-15T05:51:39.724Z,76.70
2022-10-15T05:54:06.923Z,76.60
2022-10-15T05:56:34.155Z,74.32
2022-10-15T05:59:01.383Z,74.22
2022-10-15T06:01:28.632Z,74.55
2022-10-15T06:03:55.873Z,75.13
2022-10-15T06:06:25.067Z,71.65
2022-10-15T06:08:53.093Z,73.07
2022-10-15T06:11:20.551Z,72.63
2022-10-15T06:13:48.202Z,72.57
2022-10-15T06:16:19.475Z,73.55
2022-10-15T06:18:50.180Z,72.38
2022-10-15T06:21:17.430Z,74.05
2022-10-15T06:23:45.631Z,69.57
2022-10-15T06:26:13.075Z,72.10
2022-10-15T06:28:40.365Z,72.75
2022-10-15T06:31:07.769Z,70.20
2022-10-15T06:33:35.919Z,71.80
2022-10-15T06:36:07.871Z,73.13
2022-10-15T06:38:35.395Z,72.20
2022-10-15T06:41:06.298Z,72.20
2022-10-15T06:43:35.212Z,70.25
2022-10-15T06:46:03.502Z,70.40
2022-10-15T06:48:30.700Z,107.15
2022-10-15T06:50:59.610Z,83.35
2022-10-15T06:53:26.951Z,70.30
2022-10-15T06:55:57.176Z,71.45
2022-10-15T06:58:24.471Z,70.75
2022-10-15T07:00:51.724Z,70.68
2022-10-15T07:03:18.929Z,73.20
2022-10-15T07:05:46.150Z,73.43
2022-10-15T07:08:16.965Z,69.72
2022-10-15T07:10:46.554Z,71.20
2022-10-15T07:13:14.693Z,71.50
2022-10-15T07:15:41.970Z,73.60
2022-10-15T07:18:09.168Z,76.70
2022-10-15T07:20:36.395Z,74.55
2022-10-15T07:23:03.653Z,75.60
2022-10-15T07:25:30.962Z,92.75
2022-10-15T07:27:58.675Z,100.00
2022-10-15T07:30:27.712Z,75.43
2022-10-15T07:32:57.108Z,74.85
2022-10-15T07:35:26.218Z,72.40
2022-10-15T07:37:53.422Z,72.13
2022-10-15T07:40:21.082Z,71.55
2022-10-15T07:42:55.271Z,88.57
2022-10-15T07:45:22.599Z,120.57
2022-10-15T07:47:49.808Z,74.38
2022-10-15T07:50:17.020Z,75.63
2022-10-15T07:52:44.272Z,73.50
2022-10-15T07:55:11.499Z,76.65
2022-10-15T07:57:38.722Z,75.00
2022-10-15T08:00:06.856Z,76.32
2022-10-15T08:02:34.087Z,72.40
2022-10-15T08:05:01.326Z,75.13
2022-10-15T08:07:28.550Z,72.57
2022-10-15T08:09:55.729Z,73.50
2022-10-15T08:12:23.174Z,71.32
2022-10-15T08:14:50.599Z,74.65
2022-10-15T08:17:17.790Z,73.20
2022-10-15T08:19:44.999Z,72.20
2022-10-15T08:22:12.768Z,72.72
2022-10-15T08:24:40.005Z,74.63
2022-10-15T08:27:07.222Z,72.25
2022-10-15T08:29:34.455Z,72.07
2022-10-15T08:32:01.719Z,72.75
2022-10-15T08:34:28.900Z,69.97
2022-10-15T08:36:56.131Z,72.70
2022-10-15T08:39:23.378Z,70.22
2022-10-15T08:41:53.735Z,71.55
2022-10-15T08:44:24.075Z,68.20
2022-10-15T08:46:53.595Z,65.97
2022-10-15T08:49:35.738Z,65.65
2022-10-15T08:52:07.191Z,62.60
2022-10-15T08:54:35.661Z,62.08
2022-10-15T08:57:10.044Z,59.63
2022-10-15T08:59:44.303Z,58.08
2022-10-15T09:02:16.882Z,57.85
2022-10-15T09:04:50.607Z,51.65
2022-10-15T09:07:27.727Z,48.08
2022-10-15T09:09:58.409Z,46.92
2022-10-15T09:12:25.590Z,45.28
2022-10-15T09:14:55.665Z,45.78
2022-10-15T09:17:25.930Z,43.25
2022-10-15T09:19:54.686Z,42.40
2022-10-15T09:22:26.587Z,43.00
2022-10-15T09:24:54.466Z,39.75
2022-10-15T09:27:28.627Z,37.35
2022-10-15T09:30:03.660Z,34.00
2022-10-15T09:32:35.019Z,30.92
2022-10-15T09:35:05.731Z,30.40
2022-10-15T09:37:41.775Z,90.30
2022-10-15T09:40:28.590Z,33.83
2022-10-15T09:42:57.035Z,28.60
2022-10-15T09:45:24.380Z,30.65
2022-10-15T09:47:52.039Z,32.13
2022-10-15T09:50:19.639Z,31.13
2022-10-15T09:52:49.952Z,31.60
2022-10-15T09:55:32.311Z,31.50
2022-10-15T09:58:02.421Z,31.55
2022-10-15T10:01:02.439Z,31.65
2022-10-15T10:03:31.478Z,30.35
2022-10-15T10:06:01.440Z,31.52
2022-10-15T10:08:30.115Z,32.70
2022-10-15T10:10:58.555Z,33.10
2022-10-15T10:13:33.390Z,31.40
2022-10-15T10:16:09.159Z,32.60
2022-10-15T10:18:37.780Z,30.30
2022-10-15T10:21:06.571Z,30.55
2022-10-15T10:23:38.281Z,30.45
2022-10-15T10:26:10.299Z,30.65
2022-10-15T10:28:40.510Z,27.50
2022-10-15T10:31:11.454Z,28.85
2022-10-15T10:33:44.095Z,27.85
2022-10-15T10:36:44.099Z,25.63
2022-10-15T10:39:14.695Z,26.58
2022-10-15T10:41:50.628Z,28.33
2022-10-15T10:44:22.785Z,29.55
2022-10-15T10:47:16.430Z,33.00
2022-10-15T10:49:43.653Z,31.25
2022-10-15T10:52:19.758Z,34.00
2022-10-15T10:54:47.438Z,34.85
2022-10-15T10:57:16.536Z,37.25
2022-10-15T10:59:49.091Z,38.15
2022-10-15T11:02:16.371Z,38.78
2022-10-15T11:04:43.689Z,40.85
2022-10-15T11:07:46.814Z,40.92
2022-10-15T11:10:23.861Z,37.75
2022-10-15T11:13:12.965Z,38.22
2022-10-15T11:15:58.786Z,39.05
2022-10-15T11:18:44.934Z,40.10
2022-10-15T11:21:15.178Z,40.65
2022-10-15T11:23:48.208Z,42.20
2022-10-15T11:26:41.473Z,41.25
2022-10-15T11:29:18.876Z,40.25
2022-10-15T11:32:02.463Z,38.55
2022-10-15T11:34:30.337Z,38.63
2022-10-15T11:37:01.575Z,51.05
2022-10-15T11:39:28.767Z,32.55
2022-10-15T11:41:58.920Z,28.52
2022-10-15T11:44:44.691Z,26.75
2022-10-15T11:47:30.817Z,24.60
2022-10-15T11:50:04.164Z,27.45
2022-10-15T11:52:43.484Z,28.77
2022-10-15T11:55:21.415Z,28.17
2022-10-15T11:57:50.535Z,31.20
2022-10-15T12:00:33.057Z,31.38
2022-10-15T12:03:06.307Z,31.33
2022-10-15T12:05:36.419Z,28.95
2022-10-15T12:10:47.310Z,31.58
2022-10-15T12:13:20.553Z,32.17
2022-10-15T12:16:02.793Z,32.78
2022-10-15T12:18:48.576Z,30.52
2022-10-15T12:21:30.946Z,30.55
2022-10-15T12:23:58.264Z,29.67
2022-10-15T12:26:25.461Z,29.15
2022-10-15T12:28:53.805Z,28.55
2022-10-15T12:31:21.998Z,28.80
2022-10-15T12:33:53.562Z,28.55
2022-10-15T12:38:54.297Z,24.42
2022-10-15T12:41:21.556Z,26.83
2022-10-15T12:43:52.686Z,23.48
2022-10-15T12:46:19.996Z,24.08
2022-10-15T12:48:48.037Z,23.90
2022-10-15T12:51:18.036Z,23.38
2022-10-15T12:53:46.097Z,23.48
2022-10-15T12:56:23.813Z,21.42
2022-10-15T12:58:52.346Z,22.42
2022-10-15T13:01:22.461Z,21.98
2022-10-15T13:03:52.662Z,21.88
2022-10-15T13:06:23.020Z,20.77
2022-10-15T13:08:52.161Z,20.60
2022-10-15T13:11:30.008Z,20.95
2022-10-15T13:14:02.382Z,20.58
2022-10-15T13:16:30.376Z,32.92
2022-10-15T13:18:59.083Z,232.60
2022-10-15T13:21:46.346Z,30.50
2022-10-15T13:24:15.580Z,20.85
2022-10-15T13:26:42.877Z,21.55
2022-10-15T13:29:15.985Z,22.02
2022-10-15T13:31:45.119Z,22.60
2022-10-15T13:34:17.240Z,20.75
2022-10-15T13:36:45.657Z,21.88
2022-10-15T13:39:28.402Z,19.02
2022-10-15T13:42:14.111Z,19.55
2022-10-15T13:44:41.548Z,18.92
2022-10-15T13:47:28.572Z,17.90
2022-10-15T13:50:31.185Z,19.00
2022-10-15T13:53:03.808Z,18.77
2022-10-15T13:55:42.093Z,20.20
2022-10-15T13:58:22.307Z,19.88
2022-10-15T14:00:56.190Z,21.00
2022-10-15T14:03:28.498Z,19.52
2022-10-15T14:05:56.456Z,21.52
2022-10-15T14:08:33.702Z,21.48
2022-10-15T14:11:01.074Z,20.33
2022-10-15T14:13:29.135Z,21.23
2022-10-15T14:15:59.817Z,21.23
2022-10-15T14:18:29.227Z,21.97
2022-10-15T14:20:56.431Z,23.90
2022-10-15T14:23:24.821Z,22.00
2022-10-15T14:25:59.248Z,24.35
2022-10-15T14:28:27.131Z,22.70
2022-10-15T14:30:55.258Z,23.77
2022-10-15T14:33:37.745Z,22.75
2022-10-15T14:36:06.376Z,24.30
2022-10-15T14:38:33.655Z,22.80
2022-10-15T14:41:06.384Z,23.52
2022-10-15T14:43:35.436Z,22.58
2022-10-15T14:46:04.551Z,22.20
2022-10-15T14:48:34.609Z,22.08
2022-10-15T14:51:04.123Z,22.45
2022-10-15T14:53:36.877Z,20.70
2022-10-15T14:56:10.655Z,20.80
2022-10-15T14:58:39.035Z,20.13
2022-10-15T15:01:07.518Z,18.60
2022-10-15T15:03:42.092Z,20.52
2022-10-15T15:06:09.962Z,22.58
2022-10-15T15:08:37.342Z,22.90
2022-10-15T15:11:06.126Z,23.67
2022-10-15T15:13:38.610Z,27.25
2022-10-15T15:16:06.234Z,25.63
2022-10-15T15:18:33.839Z,26.58
2022-10-15T15:21:02.735Z,27.42
2022-10-15T15:23:30.237Z,28.33
2022-10-15T15:25:57.503Z,28.30
2022-10-15T15:28:26.515Z,27.35
2022-10-15T15:31:00.859Z,27.05
2022-10-15T15:33:28.372Z,28.05
2022-10-15T15:36:01.756Z,32.13
2022-10-15T15:38:31.309Z,32.63
2022-10-15T15:41:03.597Z,30.65
2022-10-15T15:43:31.221Z,29.90
2022-10-15T15:45:58.430Z,30.17
2022-10-15T15:48:25.718Z,29.23
2022-10-15T15:50:53.087Z,28.70
2022-10-15T15:53:20.337Z,27.60
2022-10-15T15:55:47.590Z,27.77
2022-10-15T15:58:14.824Z,26.88
2022-10-15T16:00:42.058Z,27.88
2022-10-15T16:03:11.520Z,26.42
2022-10-15T16:05:39.482Z,26.25
2022-10-15T16:08:06.757Z,26.45
2022-10-15T16:10:34.606Z,26.80
2022-10-15T16:13:02.478Z,26.83
2022-10-15T16:15:29.717Z,26.83
2022-10-15T16:17:56.952Z,23.20
2022-10-15T16:20:24.336Z,23.65
2022-10-15T16:22:52.261Z,23.00
2022-10-15T16:25:20.184Z,24.00
2022-10-15T16:27:51.948Z,24.13
2022-10-15T16:30:19.680Z,24.95
2022-10-15T16:32:46.949Z,25.33
2022-10-15T16:35:14.189Z,25.60
2022-10-15T16:37:41.488Z,24.85
2022-10-15T16:40:09.085Z,26.80
2022-10-15T16:42:36.385Z,26.67
2022-10-15T16:45:03.775Z,25.35
2022-10-15T16:47:31.079Z,27.73
2022-10-15T16:49:58.361Z,26.02
2022-10-15T16:52:26.259Z,62.20
2022-10-15T16:54:53.768Z,38.75
2022-10-15T16:57:21.077Z,29.35
2022-10-15T16:59:48.333Z,27.83
2022-10-15T17:02:15.569Z,25.48
2022-10-15T17:04:42.770Z,23.08
2022-10-15T17:07:10.073Z,21.45
2022-10-15T17:09:37.637Z,21.00
2022-10-15T17:12:05.061Z,18.67
2022-10-15T17:14:32.356Z,21.60
2022-10-15T17:16:59.565Z,21.65
2022-10-15T17:19:30.357Z,17.25
2022-10-15T17:22:00.532Z,15.57
2022-10-15T17:24:27.771Z,15.02
2022-10-15T17:26:57.925Z,14.07
2022-10-15T17:29:29.084Z,14.88
2022-10-15T17:32:00.027Z,13.00
2022-10-15T17:34:28.056Z,15.07
2022-10-15T17:36:56.383Z,11.23
2022-10-15T17:39:23.889Z,12.80
2022-10-15T17:41:52.070Z,12.43
2022-10-15T17:44:19.406Z,10.70
2022-10-15T17:46:46.743Z,11.85
2022-10-15T17:49:18.341Z,11.95
2022-10-15T17:54:12.825Z,10.95
2022-10-15T17:56:40.142Z,14.52
2022-10-15T17:59:08.960Z,14.63
2022-10-15T18:01:57.177Z,13.00
2022-10-15T18:04:24.357Z,13.05
2022-10-15T18:06:51.682Z,15.55
2022-10-15T18:09:18.930Z,14.02
2022-10-15T18:11:46.182Z,13.85
2022-10-15T18:14:13.690Z,14.27
2022-10-15T18:16:41.107Z,28.80
2022-10-15T18:19:08.357Z,39.75
2022-10-15T18:21:35.632Z,17.60
2022-10-15T18:24:02.833Z,13.02
2022-10-15T18:26:30.131Z,13.80
2022-10-15T18:28:57.484Z,13.85
2022-10-15T18:31:26.227Z,15.13
2022-10-15T18:33:55.543Z,15.13
2022-10-15T18:36:27.499Z,15.38
2022-10-15T18:38:55.093Z,15.75
2022-10-15T18:41:29.454Z,15.13
2022-10-15T18:43:57.884Z,15.25
2022-10-15T18:46:25.612Z,14.63
2022-10-15T18:48:52.847Z,14.93
2022-10-15T18:51:20.147Z,16.30
2022-10-15T18:53:47.459Z,14.65
2022-10-15T18:56:14.712Z,13.90
2022-10-15T18:58:45.757Z,13.23
2022-10-15T19:01:14.648Z,11.52
2022-10-15T19:03:41.956Z,12.23
2022-10-15T19:06:09.237Z,12.32
2022-10-15T19:08:36.574Z,11.13
2022-10-15T19:11:04.896Z,36.83
2022-10-15T19:13:32.179Z,32.63
2022-10-15T19:16:00.985Z,11.88
2022-10-15T19:18:28.293Z,10.48
2022-10-15T19:20:55.503Z,13.18
2022-10-15T19:23:22.831Z,9.50
2022-10-15T19:25:50.091Z,12.18
2022-10-15T19:28:17.591Z,8.20
2022-10-15T19:30:45.292Z,7.53
2022-10-15T19:33:12.579Z,6.43
2022-10-15T19:35:43.309Z,5.60
2022-10-15T19:38:10.697Z,6.10
2022-10-15T19:40:43.729Z,6.63
2022-10-15T19:43:14.513Z,5.40
2022-10-15T19:45:45.301Z,5.90
2022-10-15T19:48:13.800Z,4.90
2022-10-15T19:50:41.981Z,4.65
2022-10-15T19:53:11.489Z,4.78
2022-10-15T19:55:39.646Z,4.55
2022-10-15T19:58:07.286Z,4.70
2022-10-15T20:00:34.950Z,3.67
2022-10-15T20:03:02.242Z,3.90
2022-10-15T20:05:29.464Z,3.25
2022-10-15T20:07:56.696Z,4.43
2022-10-15T20:10:26.260Z,28.90
2022-10-15T20:12:53.929Z,45.63
2022-10-15T20:15:21.216Z,9.77
2022-10-15T20:17:48.543Z,7.32
2022-10-15T20:20:15.982Z,7.03
2022-10-15T20:22:43.375Z,3.38
2022-10-15T20:25:11.879Z,4.43
2022-10-15T20:27:39.144Z,9.95
2022-10-15T20:30:06.588Z,5.68
2022-10-15T20:32:35.978Z,5.00
2022-10-15T20:35:04.106Z,5.65
2022-10-15T20:37:31.388Z,5.10
2022-10-15T20:40:00.026Z,6.30
2022-10-15T20:42:28.100Z,5.63
2022-10-15T20:44:55.622Z,4.80
2022-10-15T20:47:23.750Z,4.43
2022-10-15T20:49:53.168Z,5.05
2022-10-15T20:52:21.396Z,3.10
2022-10-15T20:54:48.672Z,6.85
2022-10-15T20:57:15.967Z,3.20
2022-10-15T20:59:43.215Z,3.38
2022-10-15T21:02:10.464Z,10.75
2022-10-15T21:04:37.661Z,32.63
2022-10-15T21:07:04.979Z,5.25
2022-10-15T21:09:32.183Z,4.30
2022-10-15T21:11:59.528Z,3.00
2022-10-15T21:14:26.776Z,2.95
2022-10-15T21:16:54.058Z,3.67
2022-10-15T21:19:21.310Z,2.97
2022-10-15T21:21:48.516Z,3.35
2022-10-15T21:24:15.789Z,14.95
2022-10-15T21:26:43.088Z,3.17
2022-10-15T21:29:15.273Z,6.00
2022-10-15T21:31:42.664Z,3.30
2022-10-15T21:34:10.053Z,3.17
2022-10-15T21:36:37.251Z,3.15
2022-10-15T21:39:06.726Z,3.80
2022-10-15T21:41:34.824Z,3.42
2022-10-15T21:44:02.248Z,3.28
2022-10-15T21:46:31.297Z,4.10
2022-10-15T21:48:58.872Z,5.45
2022-10-15T21:51:27.471Z,4.18
2022-10-15T21:53:55.362Z,6.07
2022-10-15T21:56:22.859Z,3.97
2022-10-15T21:58:50.154Z,3.53
2022-10-15T22:01:19.470Z,3.20
2022-10-15T22:03:47.146Z,2.47
2022-10-15T22:06:14.495Z,3.92
2022-10-15T22:08:42.306Z,3.33
2022-10-15T22:11:10.974Z,3.20
2022-10-15T22:13:38.683Z,3.35
2022-10-15T22:16:06.181Z,3.83
2022-10-15T22:18:33.488Z,3.25
2022-10-15T22:21:10.374Z,4.68
2022-10-15T22:23:37.635Z,9.80
2022-10-15T22:26:04.835Z,9.02
2022-10-15T22:28:32.075Z,4.43
2022-10-15T22:31:03.312Z,3.40
2022-10-15T22:33:30.552Z,3.42
2022-10-15T22:36:05.166Z,3.55
2022-10-15T22:38:32.609Z,3.03
2022-10-15T22:41:01.279Z,2.65
2022-10-15T22:43:28.499Z,3.30
2022-10-15T22:45:59.717Z,3.17
2022-10-15T22:48:27.115Z,3.55
2022-10-15T22:50:57.776Z,3.38
2022-10-15T22:53:25.077Z,3.05
2022-10-15T22:55:56.087Z,2.63
2022-10-15T22:58:23.475Z,2.53
2022-10-15T23:00:50.743Z,2.55
2022-10-15T23:03:18.592Z,2.38
2022-10-15T23:05:52.296Z,2.55
2022-10-15T23:08:19.627Z,2.35
2022-10-15T23:10:46.837Z,2.08
2022-10-15T23:13:14.279Z,2.50
2022-10-15T23:15:41.560Z,1.85
2022-10-15T23:18:08.929Z,2.03
2022-10-15T23:20:39.317Z,2.08
2022-10-15T23:23:06.995Z,2.53
2022-10-15T23:25:38.358Z,2.38
2022-10-15T23:28:05.799Z,1.90
2022-10-15T23:30:33.063Z,1.80
2022-10-15T23:33:02.323Z,1.83
2022-10-15T23:35:29.704Z,1.98
2022-10-15T23:37:56.966Z,2.50
2022-10-15T23:40:24.246Z,1.90
2022-10-15T23:42:51.469Z,2.30
2022-10-15T23:45:18.718Z,5.30
2022-10-15T23:47:45.958Z,3.15
2022-10-15T23:50:13.307Z,8.98
2022-10-15T23:52:40.608Z,2.00
2022-10-15T23:55:08.045Z,1.95
2022-10-15T23:57:36.216Z,2.08
